sensor_id;sensor_type;location;lat;lon;timestamp;P1;durP1;ratioP1;P2;durP2;ratioP2
56718;SDS011;42597;40.636;0.278;2022-09-16T00:00:50;5.55;;;1.85;;
56718;SDS011;42597;40.636;0.278;2022-09-16T00:03:16;3.20;;;1.30;;
56718;SDS011;42597;40.636;0.278;2022-09-16T00:05:46;5.05;;;2.03;;
56718;SDS011;42597;40.636;0.278;2022-09-16T00:08:15;2.95;;;1.33;;
56718;SDS011;42597;40.636;0.278;2022-09-16T00:10:41;6.55;;;2.03;;
56718;SDS011;42597;40.636;0.278;2022-09-16T00:13:08;3.55;;;1.63;;
56718;SDS011;42597;40.636;0.278;2022-09-16T00:15:34;3.20;;;1.88;;
56718;SDS011;42597;40.636;0.278;2022-09-16T00:18:00;3.60;;;1.98;;
56718;SDS011;42597;40.636;0.278;2022-09-16T00:20:26;4.25;;;1.63;;
56718;SDS011;42597;40.636;0.278;2022-09-16T00:22:52;4.50;;;1.63;;
56718;SDS011;42597;40.636;0.278;2022-09-16T00:25:18;4.05;;;1.65;;
56718;SDS011;42597;40.636;0.278;2022-09-16T00:27:46;4.38;;;1.90;;
56718;SDS011;42597;40.636;0.278;2022-09-16T00:30:12;4.25;;;1.60;;
56718;SDS011;42597;40.636;0.278;2022-09-16T00:32:38;1.95;;;1.30;;
56718;SDS011;42597;40.636;0.278;2022-09-16T00:35:04;3.40;;;1.52;;
56718;SDS011;42597;40.636;0.278;2022-09-16T00:37:33;3.50;;;1.58;;
56718;SDS011;42597;40.636;0.278;2022-09-16T00:42:24;4.43;;;1.80;;
56718;SDS011;42597;40.636;0.278;2022-09-16T00:47:30;2.78;;;1.33;;
56718;SDS011;42597;40.636;0.278;2022-09-16T00:50:02;3.42;;;1.63;;
56718;SDS011;42597;40.636;0.278;2022-09-16T00:52:34;5.03;;;1.58;;
56718;SDS011;42597;40.636;0.278;2022-09-16T00:55:02;3.38;;;1.50;;
56718;SDS011;42597;40.636;0.278;2022-09-16T00:57:32;2.78;;;1.27;;
56718;SDS011;42597;40.636;0.278;2022-09-16T00:59:59;2.95;;;1.30;;
56718;SDS011;42597;40.636;0.278;2022-09-16T01:02:26;3.10;;;1.75;;
56718;SDS011;42597;40.636;0.278;2022-09-16T01:04:59;3.05;;;1.50;;
56718;SDS011;42597;40.636;0.278;2022-09-16T01:07:35;2.88;;;1.35;;
56718;SDS011;42597;40.636;0.278;2022-09-16T01:10:06;6.63;;;1.73;;
56718;SDS011;42597;40.636;0.278;2022-09-16T01:12:33;4.53;;;1.23;;
56718;SDS011;42597;40.636;0.278;2022-09-16T01:14:59;4.32;;;1.80;;
56718;SDS011;42597;40.636;0.278;2022-09-16T01:17:31;2.55;;;1.40;;
56718;SDS011;42597;40.636;0.278;2022-09-16T01:36:13;1.17;;;0.50;;
56718;SDS011;42597;40.636;0.278;2022-09-16T01:46:46;2.33;;;0.88;;
56718;SDS011;42597;40.636;0.278;2022-09-16T01:55:04;3.33;;;0.80;;
56718;SDS011;42597;40.636;0.278;2022-09-16T01:57:36;1.90;;;0.88;;
56718;SDS011;42597;40.636;0.278;2022-09-16T02:00:05;1.25;;;0.80;;
56718;SDS011;42597;40.636;0.278;2022-09-16T02:02:39;1.55;;;0.88;;
56718;SDS011;42597;40.636;0.278;2022-09-16T02:05:13;1.15;;;0.70;;
56718;SDS011;42597;40.636;0.278;2022-09-16T02:07:44;1.15;;;0.85;;
56718;SDS011;42597;40.636;0.278;2022-09-16T02:10:16;2.78;;;0.98;;
56718;SDS011;42597;40.636;0.278;2022-09-16T02:12:49;3.58;;;1.05;;
56718;SDS011;42597;40.636;0.278;2022-09-16T02:15:18;6.05;;;1.77;;
56718;SDS011;42597;40.636;0.278;2022-09-16T02:18:08;1.55;;;0.90;;
56718;SDS011;42597;40.636;0.278;2022-09-16T02:20:37;2.45;;;0.80;;
56718;SDS011;42597;40.636;0.278;2022-09-16T02:23:20;2.97;;;1.13;;
56718;SDS011;42597;40.636;0.278;2022-09-16T02:25:49;2.58;;;1.10;;
56718;SDS011;42597;40.636;0.278;2022-09-16T02:30:51;0.82;;;0.70;;
56718;SDS011;42597;40.636;0.278;2022-09-16T02:33:20;2.88;;;1.00;;
56718;SDS011;42597;40.636;0.278;2022-09-16T02:35:50;2.60;;;1.27;;
56718;SDS011;42597;40.636;0.278;2022-09-16T02:40:45;2.08;;;1.10;;
56718;SDS011;42597;40.636;0.278;2022-09-16T02:43:15;2.08;;;1.20;;
56718;SDS011;42597;40.636;0.278;2022-09-16T02:54:03;6.90;;;1.00;;
56718;SDS011;42597;40.636;0.278;2022-09-16T02:56:36;2.85;;;1.17;;
56718;SDS011;42597;40.636;0.278;2022-09-16T02:59:05;2.75;;;1.23;;
56718;SDS011;42597;40.636;0.278;2022-09-16T03:01:33;1.50;;;0.90;;
56718;SDS011;42597;40.636;0.278;2022-09-16T03:04:03;5.40;;;1.38;;
56718;SDS011;42597;40.636;0.278;2022-09-16T03:06:29;3.17;;;1.25;;
56718;SDS011;42597;40.636;0.278;2022-09-16T03:09:00;3.60;;;1.40;;
56718;SDS011;42597;40.636;0.278;2022-09-16T03:14:31;4.80;;;1.75;;
56718;SDS011;42597;40.636;0.278;2022-09-16T03:20:04;3.92;;;1.50;;
56718;SDS011;42597;40.636;0.278;2022-09-16T03:28:30;2.28;;;1.30;;
56718;SDS011;42597;40.636;0.278;2022-09-16T03:34:08;2.03;;;1.02;;
56718;SDS011;42597;40.636;0.278;2022-09-16T03:36:46;1.80;;;0.82;;
56718;SDS011;42597;40.636;0.278;2022-09-16T03:39:16;3.97;;;1.45;;
56718;SDS011;42597;40.636;0.278;2022-09-16T03:41:43;2.55;;;1.13;;
56718;SDS011;42597;40.636;0.278;2022-09-16T03:44:09;2.55;;;1.10;;
56718;SDS011;42597;40.636;0.278;2022-09-16T03:46:35;4.30;;;1.45;;
56718;SDS011;42597;40.636;0.278;2022-09-16T03:49:00;1.77;;;1.02;;
56718;SDS011;42597;40.636;0.278;2022-09-16T03:51:26;2.97;;;1.48;;
56718;SDS011;42597;40.636;0.278;2022-09-16T03:53:52;1.27;;;0.95;;
56718;SDS011;42597;40.636;0.278;2022-09-16T03:56:18;1.35;;;0.95;;
56718;SDS011;42597;40.636;0.278;2022-09-16T03:58:45;1.90;;;1.10;;
56718;SDS011;42597;40.636;0.278;2022-09-16T04:01:12;17.55;;;1.67;;
56718;SDS011;42597;40.636;0.278;2022-09-16T04:03:38;3.85;;;1.30;;
56718;SDS011;42597;40.636;0.278;2022-09-16T04:06:04;3.60;;;1.17;;
56718;SDS011;42597;40.636;0.278;2022-09-16T04:08:30;4.50;;;1.27;;
56718;SDS011;42597;40.636;0.278;2022-09-16T04:10:56;2.35;;;1.40;;
56718;SDS011;42597;40.636;0.278;2022-09-16T04:13:31;2.80;;;1.40;;
56718;SDS011;42597;40.636;0.278;2022-09-16T04:15:58;1.40;;;0.90;;
56718;SDS011;42597;40.636;0.278;2022-09-16T04:18:24;6.18;;;1.60;;
56718;SDS011;42597;40.636;0.278;2022-09-16T04:20:50;2.13;;;1.10;;
56718;SDS011;42597;40.636;0.278;2022-09-16T04:23:21;4.65;;;0.90;;
56718;SDS011;42597;40.636;0.278;2022-09-16T04:25:56;2.45;;;1.55;;
56718;SDS011;42597;40.636;0.278;2022-09-16T04:28:22;1.77;;;1.25;;
56718;SDS011;42597;40.636;0.278;2022-09-16T04:30:48;3.47;;;1.08;;
56718;SDS011;42597;40.636;0.278;2022-09-16T04:33:14;2.85;;;1.10;;
56718;SDS011;42597;40.636;0.278;2022-09-16T04:35:40;9.10;;;1.73;;
56718;SDS011;42597;40.636;0.278;2022-09-16T04:38:05;3.35;;;1.67;;
56718;SDS011;42597;40.636;0.278;2022-09-16T04:40:31;2.30;;;1.35;;
56718;SDS011;42597;40.636;0.278;2022-09-16T04:42:57;3.00;;;1.20;;
56718;SDS011;42597;40.636;0.278;2022-09-16T04:45:22;2.08;;;1.30;;
56718;SDS011;42597;40.636;0.278;2022-09-16T04:47:54;2.10;;;1.20;;
56718;SDS011;42597;40.636;0.278;2022-09-16T04:50:20;2.13;;;1.17;;
56718;SDS011;42597;40.636;0.278;2022-09-16T04:52:46;1.63;;;0.88;;
56718;SDS011;42597;40.636;0.278;2022-09-16T04:55:11;1.38;;;0.90;;
56718;SDS011;42597;40.636;0.278;2022-09-16T04:57:37;3.50;;;1.40;;
56718;SDS011;42597;40.636;0.278;2022-09-16T05:00:03;9.18;;;1.95;;
56718;SDS011;42597;40.636;0.278;2022-09-16T05:02:28;2.03;;;0.95;;
56718;SDS011;42597;40.636;0.278;2022-09-16T05:04:54;0.93;;;0.88;;
56718;SDS011;42597;40.636;0.278;2022-09-16T05:07:20;3.47;;;1.30;;
56718;SDS011;42597;40.636;0.278;2022-09-16T05:09:46;4.65;;;1.30;;
56718;SDS011;42597;40.636;0.278;2022-09-16T05:12:11;3.10;;;1.10;;
56718;SDS011;42597;40.636;0.278;2022-09-16T05:14:37;3.90;;;0.98;;
56718;SDS011;42597;40.636;0.278;2022-09-16T05:17:02;2.38;;;1.02;;
56718;SDS011;42597;40.636;0.278;2022-09-16T05:19:28;2.55;;;1.40;;
56718;SDS011;42597;40.636;0.278;2022-09-16T05:21:54;1.38;;;0.80;;
56718;SDS011;42597;40.636;0.278;2022-09-16T05:24:19;1.13;;;1.02;;
56718;SDS011;42597;40.636;0.278;2022-09-16T05:26:45;3.03;;;1.38;;
56718;SDS011;42597;40.636;0.278;2022-09-16T05:29:12;3.50;;;1.02;;
56718;SDS011;42597;40.636;0.278;2022-09-16T05:31:40;1.40;;;0.93;;
56718;SDS011;42597;40.636;0.278;2022-09-16T05:36:37;3.08;;;1.52;;
56718;SDS011;42597;40.636;0.278;2022-09-16T05:39:06;1.70;;;0.95;;
56718;SDS011;42597;40.636;0.278;2022-09-16T05:41:31;2.95;;;1.20;;
56718;SDS011;42597;40.636;0.278;2022-09-16T05:43:58;1.55;;;0.70;;
56718;SDS011;42597;40.636;0.278;2022-09-16T05:46:25;3.80;;;1.40;;
56718;SDS011;42597;40.636;0.278;2022-09-16T05:48:51;1.88;;;1.00;;
56718;SDS011;42597;40.636;0.278;2022-09-16T05:51:18;2.92;;;1.17;;
56718;SDS011;42597;40.636;0.278;2022-09-16T05:53:45;2.25;;;1.10;;
56718;SDS011;42597;40.636;0.278;2022-09-16T05:56:16;2.50;;;0.93;;
56718;SDS011;42597;40.636;0.278;2022-09-16T05:58:53;2.80;;;0.95;;
56718;SDS011;42597;40.636;0.278;2022-09-16T06:01:21;2.40;;;1.17;;
56718;SDS011;42597;40.636;0.278;2022-09-16T06:03:49;2.03;;;1.05;;
56718;SDS011;42597;40.636;0.278;2022-09-16T06:06:21;2.47;;;1.02;;
56718;SDS011;42597;40.636;0.278;2022-09-16T06:08:48;1.80;;;0.95;;
56718;SDS011;42597;40.636;0.278;2022-09-16T06:11:15;2.30;;;1.10;;
56718;SDS011;42597;40.636;0.278;2022-09-16T06:13:40;0.82;;;0.75;;
56718;SDS011;42597;40.636;0.278;2022-09-16T06:16:07;1.52;;;0.80;;
56718;SDS011;42597;40.636;0.278;2022-09-16T06:18:33;0.95;;;0.75;;
56718;SDS011;42597;40.636;0.278;2022-09-16T06:21:07;2.17;;;0.80;;
56718;SDS011;42597;40.636;0.278;2022-09-16T06:23:35;4.43;;;1.05;;
56718;SDS011;42597;40.636;0.278;2022-09-16T06:26:05;1.65;;;0.80;;
56718;SDS011;42597;40.636;0.278;2022-09-16T06:28:33;2.35;;;1.00;;
56718;SDS011;42597;40.636;0.278;2022-09-16T06:31:10;2.05;;;0.98;;
56718;SDS011;42597;40.636;0.278;2022-09-16T06:33:38;1.15;;;0.63;;
56718;SDS011;42597;40.636;0.278;2022-09-16T06:36:15;1.85;;;0.82;;
56718;SDS011;42597;40.636;0.278;2022-09-16T06:38:44;2.17;;;0.95;;
56718;SDS011;42597;40.636;0.278;2022-09-16T06:41:11;1.23;;;0.80;;
56718;SDS011;42597;40.636;0.278;2022-09-16T06:43:38;0.75;;;0.63;;
56718;SDS011;42597;40.636;0.278;2022-09-16T06:46:08;2.45;;;0.95;;
56718;SDS011;42597;40.636;0.278;2022-09-16T06:48:45;2.60;;;1.25;;
56718;SDS011;42597;40.636;0.278;2022-09-16T06:51:13;1.48;;;0.90;;
56718;SDS011;42597;40.636;0.278;2022-09-16T06:53:44;1.70;;;1.02;;
56718;SDS011;42597;40.636;0.278;2022-09-16T06:56:11;3.30;;;0.68;;
56718;SDS011;42597;40.636;0.278;2022-09-16T06:58:39;0.85;;;0.50;;
56718;SDS011;42597;40.636;0.278;2022-09-16T07:03:36;0.90;;;0.70;;
56718;SDS011;42597;40.636;0.278;2022-09-16T07:06:04;1.67;;;0.70;;
56718;SDS011;42597;40.636;0.278;2022-09-16T07:08:30;1.83;;;0.80;;
56718;SDS011;42597;40.636;0.278;2022-09-16T07:10:58;1.20;;;0.77;;
56718;SDS011;42597;40.636;0.278;2022-09-16T07:13:25;1.60;;;0.73;;
56718;SDS011;42597;40.636;0.278;2022-09-16T07:15:51;2.35;;;0.70;;
56718;SDS011;42597;40.636;0.278;2022-09-16T07:18:17;0.73;;;0.50;;
56718;SDS011;42597;40.636;0.278;2022-09-16T07:20:42;1.17;;;0.68;;
56718;SDS011;42597;40.636;0.278;2022-09-16T07:23:08;1.95;;;0.77;;
56718;SDS011;42597;40.636;0.278;2022-09-16T07:25:34;1.42;;;0.60;;
56718;SDS011;42597;40.636;0.278;2022-09-16T07:27:59;1.10;;;0.77;;
56718;SDS011;42597;40.636;0.278;2022-09-16T07:30:25;0.55;;;0.52;;
56718;SDS011;42597;40.636;0.278;2022-09-16T07:32:52;1.67;;;0.57;;
56718;SDS011;42597;40.636;0.278;2022-09-16T07:35:18;2.63;;;0.73;;
56718;SDS011;42597;40.636;0.278;2022-09-16T07:37:43;0.32;;;0.32;;
56718;SDS011;42597;40.636;0.278;2022-09-16T07:40:09;0.70;;;0.70;;
56718;SDS011;42597;40.636;0.278;2022-09-16T07:42:35;0.60;;;0.60;;
56718;SDS011;42597;40.636;0.278;2022-09-16T07:45:00;2.58;;;0.73;;
56718;SDS011;42597;40.636;0.278;2022-09-16T07:47:26;0.75;;;0.57;;
56718;SDS011;42597;40.636;0.278;2022-09-16T07:49:51;1.55;;;0.65;;
56718;SDS011;42597;40.636;0.278;2022-09-16T07:52:20;2.47;;;0.70;;
56718;SDS011;42597;40.636;0.278;2022-09-16T07:54:48;1.45;;;1.00;;
56718;SDS011;42597;40.636;0.278;2022-09-16T07:57:14;2.60;;;0.73;;
56718;SDS011;42597;40.636;0.278;2022-09-16T07:59:40;0.77;;;0.60;;
56718;SDS011;42597;40.636;0.278;2022-09-16T08:02:06;0.55;;;0.43;;
56718;SDS011;42597;40.636;0.278;2022-09-16T08:04:33;1.27;;;0.50;;
56718;SDS011;42597;40.636;0.278;2022-09-16T08:06:58;2.28;;;0.65;;
56718;SDS011;42597;40.636;0.278;2022-09-16T08:09:24;2.53;;;0.85;;
56718;SDS011;42597;40.636;0.278;2022-09-16T08:11:50;0.68;;;0.50;;
56718;SDS011;42597;40.636;0.278;2022-09-16T08:14:16;0.95;;;0.70;;
56718;SDS011;42597;40.636;0.278;2022-09-16T08:16:41;3.92;;;0.80;;
56718;SDS011;42597;40.636;0.278;2022-09-16T08:19:07;0.45;;;0.45;;
56718;SDS011;42597;40.636;0.278;2022-09-16T08:21:33;2.47;;;0.70;;
56718;SDS011;42597;40.636;0.278;2022-09-16T08:23:59;1.80;;;0.60;;
56718;SDS011;42597;40.636;0.278;2022-09-16T08:26:24;1.33;;;0.57;;
56718;SDS011;42597;40.636;0.278;2022-09-16T08:28:51;0.88;;;0.60;;
56718;SDS011;42597;40.636;0.278;2022-09-16T08:31:17;0.90;;;0.80;;
56718;SDS011;42597;40.636;0.278;2022-09-16T08:33:43;1.02;;;0.65;;
56718;SDS011;42597;40.636;0.278;2022-09-16T08:36:11;2.15;;;0.70;;
56718;SDS011;42597;40.636;0.278;2022-09-16T08:38:42;0.70;;;0.55;;
56718;SDS011;42597;40.636;0.278;2022-09-16T08:49:52;0.90;;;0.60;;
56718;SDS011;42597;40.636;0.278;2022-09-16T08:52:30;2.65;;;0.85;;
56718;SDS011;42597;40.636;0.278;2022-09-16T08:55:07;2.92;;;0.60;;
56718;SDS011;42597;40.636;0.278;2022-09-16T08:57:55;3.42;;;0.95;;
56718;SDS011;42597;40.636;0.278;2022-09-16T09:00:25;2.50;;;1.00;;
56718;SDS011;42597;40.636;0.278;2022-09-16T09:03:10;1.65;;;0.98;;
56718;SDS011;42597;40.636;0.278;2022-09-16T09:10:52;1.48;;;0.90;;
56718;SDS011;42597;40.636;0.278;2022-09-16T09:27:08;3.03;;;1.02;;
56718;SDS011;42597;40.636;0.278;2022-09-16T09:30:23;1.55;;;0.85;;
56718;SDS011;42597;40.636;0.278;2022-09-16T09:33:02;1.45;;;1.00;;
56718;SDS011;42597;40.636;0.278;2022-09-16T09:35:58;3.13;;;0.88;;
56718;SDS011;42597;40.636;0.278;2022-09-16T09:41:13;4.72;;;0.90;;
56718;SDS011;42597;40.636;0.278;2022-09-16T09:43:55;1.95;;;0.73;;
56718;SDS011;42597;40.636;0.278;2022-09-16T09:46:31;1.67;;;1.00;;
56718;SDS011;42597;40.636;0.278;2022-09-16T09:49:11;1.38;;;0.85;;
56718;SDS011;42597;40.636;0.278;2022-09-16T09:51:44;3.40;;;1.15;;
56718;SDS011;42597;40.636;0.278;2022-09-16T09:56:50;1.88;;;1.00;;
56718;SDS011;42597;40.636;0.278;2022-09-16T10:02:24;2.30;;;1.02;;
56718;SDS011;42597;40.636;0.278;2022-09-16T10:04:50;2.70;;;1.20;;
56718;SDS011;42597;40.636;0.278;2022-09-16T10:07:17;1.10;;;0.80;;
56718;SDS011;42597;40.636;0.278;2022-09-16T10:12:34;2.38;;;1.02;;
56718;SDS011;42597;40.636;0.278;2022-09-16T10:15:00;1.52;;;0.80;;
56718;SDS011;42597;40.636;0.278;2022-09-16T10:17:28;2.83;;;1.00;;
56718;SDS011;42597;40.636;0.278;2022-09-16T10:19:57;2.78;;;1.00;;
56718;SDS011;42597;40.636;0.278;2022-09-16T10:22:26;2.63;;;1.20;;
56718;SDS011;42597;40.636;0.278;2022-09-16T10:25:00;1.63;;;0.93;;
56718;SDS011;42597;40.636;0.278;2022-09-16T10:27:34;3.45;;;1.15;;
56718;SDS011;42597;40.636;0.278;2022-09-16T10:30:12;1.30;;;0.68;;
56718;SDS011;42597;40.636;0.278;2022-09-16T10:35:23;4.05;;;1.58;;
56718;SDS011;42597;40.636;0.278;2022-09-16T10:37:55;3.28;;;1.33;;
56718;SDS011;42597;40.636;0.278;2022-09-16T10:40:23;1.77;;;0.90;;
56718;SDS011;42597;40.636;0.278;2022-09-16T10:42:50;1.92;;;1.23;;
56718;SDS011;42597;40.636;0.278;2022-09-16T10:45:21;2.38;;;1.40;;
56718;SDS011;42597;40.636;0.278;2022-09-16T10:47:48;3.03;;;1.27;;
56718;SDS011;42597;40.636;0.278;2022-09-16T10:50:18;2.50;;;1.58;;
56718;SDS011;42597;40.636;0.278;2022-09-16T10:52:45;4.63;;;1.45;;
56718;SDS011;42597;40.636;0.278;2022-09-16T10:55:33;2.75;;;1.63;;
56718;SDS011;42597;40.636;0.278;2022-09-16T11:00:40;3.92;;;1.73;;
56718;SDS011;42597;40.636;0.278;2022-09-16T11:03:33;1.70;;;0.98;;
56718;SDS011;42597;40.636;0.278;2022-09-16T11:06:17;2.97;;;1.08;;
56718;SDS011;42597;40.636;0.278;2022-09-16T11:09:09;5.47;;;1.58;;
56718;SDS011;42597;40.636;0.278;2022-09-16T11:12:03;3.40;;;1.27;;
56718;SDS011;42597;40.636;0.278;2022-09-16T11:15:04;3.95;;;1.42;;
56718;SDS011;42597;40.636;0.278;2022-09-16T11:45:56;2.80;;;1.10;;
56718;SDS011;42597;40.636;0.278;2022-09-16T11:54:20;1.63;;;1.17;;
56718;SDS011;42597;40.636;0.278;2022-09-16T11:56:57;3.30;;;1.65;;
56718;SDS011;42597;40.636;0.278;2022-09-16T11:59:37;3.00;;;1.35;;
56718;SDS011;42597;40.636;0.278;2022-09-16T12:07:34;3.88;;;1.50;;
56718;SDS011;42597;40.636;0.278;2022-09-16T12:10:07;2.58;;;1.27;;
56718;SDS011;42597;40.636;0.278;2022-09-16T12:12:45;2.75;;;1.20;;
56718;SDS011;42597;40.636;0.278;2022-09-16T12:15:34;2.42;;;1.38;;
56718;SDS011;42597;40.636;0.278;2022-09-16T12:18:16;4.43;;;1.52;;
56718;SDS011;42597;40.636;0.278;2022-09-16T12:23:35;3.33;;;1.77;;
56718;SDS011;42597;40.636;0.278;2022-09-16T12:26:40;2.03;;;1.45;;
56718;SDS011;42597;40.636;0.278;2022-09-16T12:29:13;4.05;;;1.50;;
56718;SDS011;42597;40.636;0.278;2022-09-16T12:32:07;2.08;;;1.33;;
56718;SDS011;42597;40.636;0.278;2022-09-16T12:37:44;3.60;;;1.70;;
56718;SDS011;42597;40.636;0.278;2022-09-16T12:40:37;2.50;;;1.50;;
56718;SDS011;42597;40.636;0.278;2022-09-16T12:54:54;2.65;;;1.55;;
56718;SDS011;42597;40.636;0.278;2022-09-16T12:57:40;2.33;;;1.10;;
56718;SDS011;42597;40.636;0.278;2022-09-16T13:00:33;3.38;;;1.58;;
56718;SDS011;42597;40.636;0.278;2022-09-16T13:03:08;4.70;;;2.22;;
56718;SDS011;42597;40.636;0.278;2022-09-16T13:05:46;3.25;;;1.70;;
56718;SDS011;42597;40.636;0.278;2022-09-16T13:08:25;3.03;;;1.00;;
56718;SDS011;42597;40.636;0.278;2022-09-16T13:11:02;5.05;;;1.90;;
56718;SDS011;42597;40.636;0.278;2022-09-16T13:13:41;2.30;;;1.30;;
56718;SDS011;42597;40.636;0.278;2022-09-16T13:16:11;3.72;;;1.60;;
56718;SDS011;42597;40.636;0.278;2022-09-16T13:18:44;2.72;;;1.45;;
56718;SDS011;42597;40.636;0.278;2022-09-16T13:21:12;1.75;;;1.27;;
56718;SDS011;42597;40.636;0.278;2022-09-16T13:23:47;3.03;;;1.60;;
56718;SDS011;42597;40.636;0.278;2022-09-16T13:26:17;3.00;;;1.42;;
56718;SDS011;42597;40.636;0.278;2022-09-16T13:28:44;3.50;;;1.30;;
56718;SDS011;42597;40.636;0.278;2022-09-16T13:33:44;2.53;;;1.60;;
56718;SDS011;42597;40.636;0.278;2022-09-16T13:38:51;3.75;;;1.80;;
56718;SDS011;42597;40.636;0.278;2022-09-16T13:41:36;3.47;;;1.80;;
56718;SDS011;42597;40.636;0.278;2022-09-16T13:46:50;2.33;;;1.30;;
56718;SDS011;42597;40.636;0.278;2022-09-16T13:51:48;3.80;;;1.40;;
56718;SDS011;42597;40.636;0.278;2022-09-16T13:54:18;1.70;;;1.17;;
56718;SDS011;42597;40.636;0.278;2022-09-16T14:07:58;3.80;;;1.35;;
56718;SDS011;42597;40.636;0.278;2022-09-16T14:13:57;3.20;;;1.40;;
56718;SDS011;42597;40.636;0.278;2022-09-16T14:16:25;2.10;;;1.27;;
56718;SDS011;42597;40.636;0.278;2022-09-16T14:19:00;2.13;;;1.20;;
56718;SDS011;42597;40.636;0.278;2022-09-16T14:21:30;6.28;;;1.75;;
56718;SDS011;42597;40.636;0.278;2022-09-16T14:26:48;5.30;;;1.75;;
56718;SDS011;42597;40.636;0.278;2022-09-16T14:29:18;5.72;;;1.58;;
56718;SDS011;42597;40.636;0.278;2022-09-16T14:31:45;3.17;;;1.38;;
56718;SDS011;42597;40.636;0.278;2022-09-16T14:34:23;4.82;;;1.67;;
56718;SDS011;42597;40.636;0.278;2022-09-16T14:36:57;9.52;;;1.50;;
56718;SDS011;42597;40.636;0.278;2022-09-16T14:39:24;2.30;;;1.45;;
56718;SDS011;42597;40.636;0.278;2022-09-16T14:41:53;2.28;;;1.38;;
56718;SDS011;42597;40.636;0.278;2022-09-16T14:44:34;2.53;;;1.10;;
56718;SDS011;42597;40.636;0.278;2022-09-16T14:47:13;4.07;;;1.98;;
56718;SDS011;42597;40.636;0.278;2022-09-16T14:49:50;3.45;;;1.15;;
56718;SDS011;42597;40.636;0.278;2022-09-16T14:52:21;5.85;;;1.25;;
56718;SDS011;42597;40.636;0.278;2022-09-16T14:54:55;2.70;;;1.40;;
56718;SDS011;42597;40.636;0.278;2022-09-16T14:57:23;4.07;;;2.03;;
56718;SDS011;42597;40.636;0.278;2022-09-16T14:59:54;3.40;;;1.35;;
56718;SDS011;42597;40.636;0.278;2022-09-16T15:02:28;2.95;;;1.48;;
56718;SDS011;42597;40.636;0.278;2022-09-16T15:07:33;3.33;;;1.42;;
56718;SDS011;42597;40.636;0.278;2022-09-16T15:10:07;3.70;;;1.90;;
56718;SDS011;42597;40.636;0.278;2022-09-16T15:12:44;3.40;;;1.50;;
56718;SDS011;42597;40.636;0.278;2022-09-16T15:15:17;3.55;;;1.67;;
56718;SDS011;42597;40.636;0.278;2022-09-16T15:17:51;3.45;;;1.60;;
56718;SDS011;42597;40.636;0.278;2022-09-16T15:20:28;1.42;;;1.00;;
56718;SDS011;42597;40.636;0.278;2022-09-16T15:22:56;4.75;;;1.48;;
56718;SDS011;42597;40.636;0.278;2022-09-16T15:25:26;2.65;;;1.42;;
56718;SDS011;42597;40.636;0.278;2022-09-16T15:28:13;2.40;;;1.42;;
56718;SDS011;42597;40.636;0.278;2022-09-16T15:30:48;3.30;;;1.60;;
56718;SDS011;42597;40.636;0.278;2022-09-16T15:33:26;4.38;;;1.45;;
56718;SDS011;42597;40.636;0.278;2022-09-16T15:35:57;2.97;;;1.38;;
56718;SDS011;42597;40.636;0.278;2022-09-16T15:38:23;1.95;;;1.38;;
56718;SDS011;42597;40.636;0.278;2022-09-16T15:41:10;3.22;;;1.52;;
56718;SDS011;42597;40.636;0.278;2022-09-16T15:43:41;2.28;;;1.02;;
56718;SDS011;42597;40.636;0.278;2022-09-16T15:46:13;1.80;;;1.02;;
56718;SDS011;42597;40.636;0.278;2022-09-16T15:48:45;1.10;;;1.00;;
56718;SDS011;42597;40.636;0.278;2022-09-16T15:53:45;3.40;;;1.10;;
56718;SDS011;42597;40.636;0.278;2022-09-16T15:58:56;2.30;;;1.33;;
56718;SDS011;42597;40.636;0.278;2022-09-16T16:04:02;2.78;;;1.38;;
56718;SDS011;42597;40.636;0.278;2022-09-16T16:14:35;5.18;;;1.67;;
56718;SDS011;42597;40.636;0.278;2022-09-16T16:17:02;3.63;;;1.80;;
56718;SDS011;42597;40.636;0.278;2022-09-16T16:19:38;4.13;;;1.75;;
56718;SDS011;42597;40.636;0.278;2022-09-16T16:22:05;4.43;;;1.73;;
56718;SDS011;42597;40.636;0.278;2022-09-16T16:24:31;2.33;;;1.40;;
56718;SDS011;42597;40.636;0.278;2022-09-16T16:26:57;3.13;;;1.55;;
56718;SDS011;42597;40.636;0.278;2022-09-16T16:29:23;2.83;;;1.20;;
56718;SDS011;42597;40.636;0.278;2022-09-16T16:31:59;4.15;;;1.65;;
56718;SDS011;42597;40.636;0.278;2022-09-16T16:34:33;2.95;;;1.30;;
56718;SDS011;42597;40.636;0.278;2022-09-16T16:37:01;3.63;;;1.50;;
56718;SDS011;42597;40.636;0.278;2022-09-16T16:39:27;5.57;;;1.80;;
56718;SDS011;42597;40.636;0.278;2022-09-16T16:41:53;3.35;;;1.88;;
56718;SDS011;42597;40.636;0.278;2022-09-16T16:44:20;2.75;;;1.45;;
56718;SDS011;42597;40.636;0.278;2022-09-16T16:46:47;3.53;;;1.13;;
56718;SDS011;42597;40.636;0.278;2022-09-16T16:49:15;3.05;;;1.30;;
56718;SDS011;42597;40.636;0.278;2022-09-16T16:51:41;2.80;;;1.33;;
56718;SDS011;42597;40.636;0.278;2022-09-16T16:54:07;2.45;;;1.33;;
56718;SDS011;42597;40.636;0.278;2022-09-16T16:56:37;2.22;;;1.30;;
56718;SDS011;42597;40.636;0.278;2022-09-16T16:59:07;4.47;;;1.92;;
56718;SDS011;42597;40.636;0.278;2022-09-16T17:01:32;2.00;;;1.40;;
56718;SDS011;42597;40.636;0.278;2022-09-16T17:03:59;2.47;;;1.30;;
56718;SDS011;42597;40.636;0.278;2022-09-16T17:06:26;4.10;;;1.50;;
56718;SDS011;42597;40.636;0.278;2022-09-16T17:08:53;2.97;;;1.33;;
56718;SDS011;42597;40.636;0.278;2022-09-16T17:11:20;4.20;;;1.48;;
56718;SDS011;42597;40.636;0.278;2022-09-16T17:13:48;3.20;;;1.27;;
56718;SDS011;42597;40.636;0.278;2022-09-16T17:16:16;3.85;;;1.50;;
56718;SDS011;42597;40.636;0.278;2022-09-16T17:18:43;6.25;;;1.58;;
56718;SDS011;42597;40.636;0.278;2022-09-16T17:21:10;3.70;;;1.60;;
56718;SDS011;42597;40.636;0.278;2022-09-16T17:23:37;1.58;;;1.10;;
56718;SDS011;42597;40.636;0.278;2022-09-16T17:26:04;2.38;;;1.45;;
56718;SDS011;42597;40.636;0.278;2022-09-16T17:28:31;2.65;;;1.10;;
56718;SDS011;42597;40.636;0.278;2022-09-16T17:30:57;2.42;;;1.13;;
56718;SDS011;42597;40.636;0.278;2022-09-16T17:33:22;1.17;;;0.90;;
56718;SDS011;42597;40.636;0.278;2022-09-16T17:36:01;3.72;;;1.75;;
56718;SDS011;42597;40.636;0.278;2022-09-16T17:38:29;2.38;;;1.17;;
56718;SDS011;42597;40.636;0.278;2022-09-16T17:41:02;3.08;;;1.35;;
56718;SDS011;42597;40.636;0.278;2022-09-16T17:43:30;3.55;;;1.23;;
56718;SDS011;42597;40.636;0.278;2022-09-16T17:45:56;3.42;;;1.92;;
56718;SDS011;42597;40.636;0.278;2022-09-16T17:48:25;1.25;;;0.90;;
56718;SDS011;42597;40.636;0.278;2022-09-16T17:50:52;3.40;;;1.60;;
56718;SDS011;42597;40.636;0.278;2022-09-16T17:53:18;3.30;;;1.27;;
56718;SDS011;42597;40.636;0.278;2022-09-16T17:55:44;6.80;;;1.65;;
56718;SDS011;42597;40.636;0.278;2022-09-16T17:58:10;4.82;;;2.45;;
56718;SDS011;42597;40.636;0.278;2022-09-16T18:00:36;5.68;;;1.90;;
56718;SDS011;42597;40.636;0.278;2022-09-16T18:03:02;12.70;;;2.22;;
56718;SDS011;42597;40.636;0.278;2022-09-16T18:05:31;6.43;;;1.65;;
56718;SDS011;42597;40.636;0.278;2022-09-16T18:07:57;4.22;;;2.15;;
56718;SDS011;42597;40.636;0.278;2022-09-16T18:10:23;2.83;;;1.27;;
56718;SDS011;42597;40.636;0.278;2022-09-16T18:12:49;4.38;;;1.25;;
56718;SDS011;42597;40.636;0.278;2022-09-16T18:15:14;3.50;;;1.08;;
56718;SDS011;42597;40.636;0.278;2022-09-16T18:17:40;3.08;;;1.27;;
56718;SDS011;42597;40.636;0.278;2022-09-16T18:20:06;4.75;;;1.45;;
56718;SDS011;42597;40.636;0.278;2022-09-16T18:22:32;5.38;;;1.40;;
56718;SDS011;42597;40.636;0.278;2022-09-16T18:24:57;8.25;;;1.50;;
56718;SDS011;42597;40.636;0.278;2022-09-16T18:27:23;3.17;;;1.35;;
56718;SDS011;42597;40.636;0.278;2022-09-16T18:29:49;2.25;;;1.27;;
56718;SDS011;42597;40.636;0.278;2022-09-16T18:32:15;3.03;;;1.33;;
56718;SDS011;42597;40.636;0.278;2022-09-16T18:34:40;5.90;;;2.83;;
56718;SDS011;42597;40.636;0.278;2022-09-16T18:37:06;6.88;;;3.33;;
56718;SDS011;42597;40.636;0.278;2022-09-16T18:39:32;8.82;;;3.85;;
56718;SDS011;42597;40.636;0.278;2022-09-16T18:41:58;2.83;;;1.45;;